Time;durP1;ratioP1;P1;durP2;ratioP2;P2;SDS_P1;SDS_P2;PMS_P1;PMS_P2;Temp;Humidity;BMP_temperature;BMP_pressure;BME280_temperature;BME280_humidity;BME280_pressure;Samples;Min_cycle;Max_cycle;Signal;HPM_P1;HPM_P2
2023/01/20 00:01:38;;;;;;;67.12;28.92;;;;;;;0.68;100.00;99547.08;1695885;84;25417;-41
2023/01/20 00:04:06;;;;;;;66.25;29.98;;;;;;;0.68;100.00;99556.39;1695883;84;27410;-40
2023/01/20 00:06:33;;;;;;;67.45;31.70;;;;;;;0.68;100.00;99557.73;1695724;84;25826;-42
2023/01/20 00:09:03;;;;;;;67.92;32.42;;;;;;;0.68;100.00;99569.70;1695837;84;25575;-41
2023/01/20 00:11:30;;;;;;;61.02;30.15;;;;;;;0.68;100.00;99569.70;1695955;84;26231;-40
2023/01/20 00:14:01;;;;;;;66.97;31.30;;;;;;;0.67;100.00;99570.24;1694975;84;25498;-43
2023/01/20 00:16:30;;;;;;;68.35;31.30;;;;;;;0.68;100.00;99573.70;1694399;84;27350;-40
2023/01/20 00:18:58;;;;;;;72.97;32.00;;;;;;;0.68;100.00;99578.52;1694730;84;25627;-41
2023/01/20 00:21:26;;;;;;;74.12;30.62;;;;;;;0.68;100.00;99582.51;1695013;84;25683;-41
2023/01/20 00:23:53;;;;;;;68.95;31.15;;;;;;;0.68;100.00;99583.84;1694909;84;25672;-42
2023/01/20 00:26:23;;;;;;;74.07;32.67;;;;;;;0.67;100.00;99584.89;1695109;84;25732;-40
2023/01/20 00:28:56;;;;;;;75.35;32.15;;;;;;;0.67;100.00;99586.22;1695028;84;27306;-42
2023/01/20 00:31:28;;;;;;;73.83;32.78;;;;;;;0.67;100.00;99591.54;1695510;84;25545;-41
2023/01/20 00:33:58;;;;;;;80.97;34.35;;;;;;;0.66;100.00;99595.79;1695985;84;25553;-40
2023/01/20 00:36:30;;;;;;;77.60;33.67;;;;;;;0.63;100.00;99602.45;1696107;84;25667;-41
2023/01/20 00:39:00;;;;;;;82.30;35.78;;;;;;;0.66;100.00;99613.09;1696157;84;25636;-41
2023/01/20 00:41:26;;;;;;;75.05;35.90;;;;;;;0.65;100.00;99609.64;1664456;84;28099;-43
2023/01/20 00:43:53;;;;;;;87.05;40.00;;;;;;;0.65;100.00;99613.63;1756365;81;25551;-41
2023/01/20 00:46:21;;;;;;;79.42;37.60;;;;;;;0.66;100.00;99622.41;1756427;81;25690;-41
2023/01/20 00:48:49;;;;;;;89.60;41.02;;;;;;;0.66;100.00;99620.53;1756515;81;26262;-40
2023/01/20 00:51:17;;;;;;;93.90;42.13;;;;;;;0.68;100.00;99625.09;1756424;81;25171;-40
2023/01/20 00:53:43;;;;;;;74.95;34.85;;;;;;;0.69;100.00;99632.55;1756438;81;29502;-41
2023/01/20 00:56:10;;;;;;;71.90;32.90;;;;;;;0.69;100.00;99630.67;1721949;81;25620;-41
2023/01/20 00:58:36;;;;;;;74.53;31.62;;;;;;;0.70;100.00;99640.81;1756466;81;25632;-41
2023/01/20 01:01:04;;;;;;;75.62;32.38;;;;;;;0.70;100.00;99639.48;1756370;81;25716;-41
2023/01/20 01:03:31;;;;;;;77.25;33.83;;;;;;;0.68;100.00;99637.08;1756398;81;25485;-42
2023/01/20 01:06:12;;;;;;;73.25;31.73;;;;;;;0.68;100.00;99642.40;1663609;84;27279;-42
2023/01/20 01:08:43;;;;;;;70.72;31.27;;;;;;;0.69;100.00;99645.31;1754923;81;25982;-41
2023/01/20 01:11:11;;;;;;;;;;;;;;;0.67;100.00;99645.31;1758884;81;25584;-41
2023/01/20 01:13:38;;;;;;;69.72;30.95;;;;;;;0.66;100.00;99643.16;1722337;81;26221;-41
2023/01/20 01:16:13;;;;;;;70.72;32.23;;;;;;;0.65;100.00;99645.58;1695936;84;25456;-40
2023/01/20 01:18:42;;;;;;;67.65;29.95;;;;;;;0.66;100.00;99645.83;1695995;84;27998;-41
2023/01/20 01:21:16;;;;;;;69.57;31.23;;;;;;;0.66;100.00;99647.70;1664003;84;25780;-40
2023/01/20 01:23:44;;;;;;;65.72;30.27;;;;;;;0.65;100.00;99647.44;1695845;84;25598;-42
2023/01/20 01:26:11;;;;;;;66.62;30.17;;;;;;;0.64;100.00;99647.16;1722211;81;26298;-41
2023/01/20 01:28:40;;;;;;;73.33;30.10;;;;;;;0.64;100.00;99653.27;1722200;81;25608;-41
2023/01/20 01:31:09;;;;;;;68.52;30.15;;;;;;;0.63;100.00;99654.86;1756240;81;27466;-41
2023/01/20 01:33:36;;;;;;;68.70;29.42;;;;;;;0.62;100.00;99657.27;1756155;81;25634;-41
2023/01/20 01:36:07;;;;;;;67.70;29.42;;;;;;;0.62;100.00;99661.27;1756570;81;25202;-41
2023/01/20 01:38:35;;;;;;;66.90;29.37;;;;;;;0.61;100.00;99663.10;1756516;81;25614;-43
2023/01/20 01:41:03;;;;;;;62.25;28.60;;;;;;;0.60;100.00;99665.51;1696139;84;25181;-42
2023/01/20 01:43:34;;;;;;;67.15;29.82;;;;;;;0.60;100.00;99669.50;1696041;84;27498;-42
2023/01/20 01:46:03;;;;;;;67.40;30.72;;;;;;;0.61;100.00;99674.28;1696079;84;25628;-41
2023/01/20 01:48:43;;;;;;;67.78;28.95;;;;;;;0.60;100.00;99670.04;1696175;84;25408;-42
2023/01/20 01:51:25;;;;;;;63.20;29.32;;;;;;;0.58;100.00;99666.81;1696062;84;26156;-41
2023/01/20 01:53:59;;;;;;;61.40;27.48;;;;;;;0.59;100.00;99675.88;1696201;84;25658;-41
2023/01/20 01:56:30;;;;;;;61.48;26.90;;;;;;;0.58;100.00;99669.47;1691405;84;27492;-40
2023/01/20 01:59:02;;;;;;;63.83;26.85;;;;;;;0.59;100.00;99675.08;1696093;84;25409;-42
2023/01/20 02:01:35;;;;;;;62.90;28.17;;;;;;;0.58;100.00;99676.13;1696081;84;25575;-41
2023/01/20 02:04:13;;;;;;;63.60;28.27;;;;;;;0.57;100.00;99666.02;1756443;81;25687;-42
2023/01/20 02:06:44;;;;;;;60.20;28.40;;;;;;;0.58;100.00;99668.97;1696115;84;25413;-40
2023/01/20 02:09:13;;;;;;;67.40;29.35;;;;;;;0.57;100.00;99671.88;1696043;84;27439;-41
2023/01/20 02:11:47;;;;;;;68.33;28.77;;;;;;;0.58;100.00;99675.62;1695897;84;25575;-42
2023/01/20 02:14:19;;;;;;;76.10;31.25;;;;;;;0.58;100.00;99676.95;1702474;84;25587;-41
2023/01/20 02:17:19;;;;;;;64.27;29.12;;;;;;;0.57;100.00;99671.34;1745346;81;25633;-41
2023/01/20 02:20:23;;;;;;;62.00;27.45;;;;;;;0.56;100.00;99680.37;1746065;82;25660;-41
2023/01/20 02:23:45;;;;;;;66.12;28.38;;;;;;;0.55;100.00;99681.45;1629867;87;27044;-41
2023/01/20 02:26:55;;;;;;;68.05;27.98;;;;;;;0.53;100.00;99683.58;1604007;88;26072;-42
2023/01/20 02:29:37;;;;;;;67.82;27.45;;;;;;;0.53;100.00;99690.23;1608021;88;25743;-40
2023/01/20 02:32:41;;;;;;;67.05;28.50;;;;;;;0.52;100.00;99690.73;1629076;88;25687;-42
2023/01/20 02:35:24;;;;;;;66.77;27.87;;;;;;;0.52;100.00;99689.41;1603902;88;25516;-40
2023/01/20 02:38:14;;;;;;;66.12;26.10;;;;;;;0.53;100.00;99692.34;1646031;87;27369;-40
2023/01/20 02:41:07;;;;;;;65.90;28.38;;;;;;;0.53;100.00;99694.22;1623726;87;25663;-40
2023/01/20 02:44:05;;;;;;;66.07;27.90;;;;;;;0.52;100.00;99688.61;1645981;87;25263;-42
2023/01/20 02:46:41;;;;;;;61.65;26.82;;;;;;;0.52;100.00;99693.39;1645853;87;25618;-42
2023/01/20 02:49:39;;;;;;;60.12;25.68;;;;;;;0.53;100.00;99692.89;1645911;87;25502;-42
2023/01/20 02:52:13;;;;;;;61.70;26.23;;;;;;;0.53;100.00;99690.23;1645977;87;29456;-40
2023/01/20 02:54:47;;;;;;;64.90;27.42;;;;;;;0.52;100.00;99691.27;1644873;87;25759;-41
2023/01/20 02:57:19;;;;;;;60.43;26.45;;;;;;;0.52;100.00;99684.08;1694481;81;25447;-44
2023/01/20 02:59:51;;;;;;;60.75;26.52;;;;;;;0.52;100.00;99680.09;1767013;81;25683;-41
2023/01/20 03:02:26;;;;;;;62.43;26.52;;;;;;;0.52;100.00;99677.97;1736779;81;25443;-41
2023/01/20 03:05:04;;;;;;;59.88;26.12;;;;;;;0.52;100.00;99673.44;1703891;84;29574;-40
2023/01/20 03:07:35;;;;;;;56.92;25.65;;;;;;;0.52;100.00;99676.09;1745157;82;27128;-41
2023/01/20 03:10:09;;;;;;;59.05;25.77;;;;;;;0.53;100.00;99675.59;1745905;82;25575;-41
2023/01/20 03:12:49;;;;;;;62.83;27.02;;;;;;;0.52;100.00;99685.95;1739598;81;26033;-42
2023/01/20 03:15:25;;;;;;;60.25;25.77;;;;;;;0.52;100.00;99689.94;1664250;84;25249;-41
2023/01/20 03:17:53;;;;;;;56.88;24.27;;;;;;;0.53;100.00;99690.23;1695930;84;27469;-40
2023/01/20 03:20:20;;;;;;;57.27;25.08;;;;;;;0.52;100.00;99692.60;1695828;84;25418;-42
2023/01/20 03:22:50;;;;;;;54.10;25.57;;;;;;;0.51;100.00;99699.80;1664058;84;25584;-40
2023/01/20 03:25:20;;;;;;;63.80;25.88;;;;;;;0.52;100.00;99703.25;1756391;81;26251;-40
2023/01/20 03:27:48;;;;;;;60.70;24.98;;;;;;;0.52;100.00;99705.38;1756362;81;25556;-42
2023/01/20 03:30:18;;;;;;;61.98;25.82;;;;;;;0.52;100.00;99698.72;1756207;81;27363;-40
2023/01/20 03:32:47;;;;;;;59.27;25.10;;;;;;;0.52;100.00;99697.92;1756213;81;25392;-41
2023/01/20 03:35:17;;;;;;;62.90;24.05;;;;;;;0.51;100.00;99695.80;1756290;81;25369;-41
2023/01/20 03:37:45;;;;;;;63.60;26.70;;;;;;;0.52;100.00;99701.92;1756472;80;26292;-41
2023/01/20 03:40:14;;;;;;;62.08;24.60;;;;;;;0.50;100.00;99700.84;1756276;81;25408;-42
2023/01/20 03:43:01;;;;;;;63.58;26.02;;;;;;;0.50;100.00;99703.50;1756350;81;27934;-41
2023/01/20 03:45:56;;;;;;;61.08;26.00;;;;;;;0.50;100.00;99712.02;1756221;81;25820;-42
2023/01/20 03:48:48;;;;;;;61.77;25.82;;;;;;;0.51;100.00;99714.44;1755595;81;25629;-40
2023/01/20 03:51:27;;;;;;;57.80;24.75;;;;;;;0.52;100.00;99711.23;1753477;81;25821;-42
2023/01/20 03:54:04;;;;;;;56.60;25.17;;;;;;;0.52;100.00;99721.88;1744393;81;25411;-40
2023/01/20 03:57:03;;;;;;;58.68;25.72;;;;;;;0.52;100.00;99734.64;1664074;84;28193;-40
2023/01/20 03:59:33;;;;;;;;;;;;;;;0.53;100.00;99740.25;1698320;84;25473;-41
2023/01/20 04:02:05;;;;;;;;;;;;;;;0.53;100.00;99742.91;1734910;82;25594;-42
2023/01/20 04:04:37;;;;;;;56.70;23.27;;;;;;;0.55;100.00;99740.00;1701227;82;26561;-42
2023/01/20 04:07:09;;;;;;;60.28;24.95;;;;;;;0.53;100.00;99741.59;1732501;82;25687;-40
2023/01/20 04:09:41;;;;;;;56.63;25.00;;;;;;;0.55;100.00;99758.09;1732431;82;27511;-40
2023/01/20 04:12:08;;;;;;;62.35;25.52;;;;;;;0.57;100.00;99763.70;1732349;82;25629;-40
2023/01/20 04:14:36;;;;;;;63.48;26.27;;;;;;;0.58;100.00;99774.60;1724882;82;25581;-42
2023/01/20 04:17:06;;;;;;;61.60;25.48;;;;;;;0.59;100.00;99766.37;1722004;82;25683;-43
2023/01/20 04:19:33;;;;;;;62.95;27.17;;;;;;;0.61;100.00;99770.11;1698147;84;25504;-40
2023/01/20 04:22:29;;;;;;;64.62;25.48;;;;;;;0.61;100.00;99780.22;1721985;83;27400;-39
2023/01/20 04:25:16;;;;;;;65.65;27.70;;;;;;;0.62;100.00;99788.48;1676179;85;25653;-40
2023/01/20 04:27:42;;;;;;;65.35;24.92;;;;;;;0.64;100.00;99792.23;1674306;85;25755;-40
2023/01/20 04:30:13;;;;;;;65.50;26.80;;;;;;;0.64;100.00;99808.99;1673569;85;25746;-39
2023/01/20 04:32:39;;;;;;;63.05;24.50;;;;;;;0.64;100.00;99812.19;1676848;85;25527;-41
2023/01/20 04:35:14;;;;;;;62.27;25.57;;;;;;;0.65;100.00;99809.28;1669173;86;27410;-41
2023/01/20 04:37:43;;;;;;;56.28;23.90;;;;;;;0.67;100.00;99814.35;1669198;86;25586;-41
2023/01/20 04:40:13;;;;;;;55.85;24.02;;;;;;;0.68;100.00;99815.94;1669292;86;25619;-39
2023/01/20 04:42:39;;;;;;;50.90;24.05;;;;;;;0.67;100.00;99819.67;1669572;85;25688;-40
2023/01/20 04:45:11;;;;;;;62.27;24.37;;;;;;;0.68;100.00;99811.94;1669178;86;25658;-41
2023/01/20 04:47:38;;;;;;;58.63;25.37;;;;;;;0.67;100.00;99805.03;1669145;86;27367;-40
2023/01/20 04:50:07;;;;;;;54.38;22.77;;;;;;;0.68;100.00;99810.11;1669000;86;25656;-41
2023/01/20 04:52:34;;;;;;;58.15;23.62;;;;;;;0.68;100.00;99817.27;1669269;86;25690;-41
2023/01/20 04:55:00;;;;;;;52.85;22.20;;;;;;;0.68;100.00;99826.58;1671961;83;25794;-41
2023/01/20 04:57:26;;;;;;;56.25;24.18;;;;;;;0.68;100.00;99827.41;1716866;83;25628;-41
2023/01/20 04:59:54;;;;;;;52.20;22.80;;;;;;;0.69;100.00;99822.34;1698055;84;27340;-40
2023/01/20 05:02:21;;;;;;;58.48;22.32;;;;;;;0.67;100.00;99825.80;1721921;83;25633;-40
2023/01/20 05:04:47;;;;;;;52.93;22.95;;;;;;;0.69;100.00;99833.52;1698076;84;25494;-39
2023/01/20 05:07:14;;;;;;;51.25;22.42;;;;;;;0.68;100.00;99836.73;1721979;83;26034;-40
2023/01/20 05:09:40;;;;;;;65.12;26.05;;;;;;;0.70;100.00;99840.47;1698015;84;25612;-40
2023/01/20 05:12:08;;;;;;;63.65;25.77;;;;;;;0.70;100.00;99844.46;1721936;83;27313;-40
2023/01/20 05:14:35;;;;;;;57.98;25.37;;;;;;;0.70;100.00;99856.44;1721687;82;27104;-40
2023/01/20 05:17:01;;;;;;;52.45;24.50;;;;;;;0.67;100.00;99847.09;1721890;83;25561;-40
2023/01/20 05:19:27;;;;;;;59.13;24.15;;;;;;;0.69;100.00;99844.97;1721855;83;26711;-41
2023/01/20 05:21:54;;;;;;;51.35;22.87;;;;;;;0.70;100.00;99855.11;1721941;83;25429;-39
2023/01/20 05:24:23;;;;;;;54.08;24.20;;;;;;;0.69;100.00;99848.96;1697912;83;27658;-40
2023/01/20 05:26:49;;;;;;;48.33;21.35;;;;;;;0.70;100.00;99858.56;1721794;83;25612;-40
2023/01/20 05:29:16;;;;;;;68.60;25.02;;;;;;;0.71;100.00;99866.02;1698009;84;25628;-40
2023/01/20 05:31:44;;;;;;;54.23;22.20;;;;;;;0.70;100.00;99869.21;1721881;83;25656;-41
2023/01/20 05:34:11;;;;;;;50.17;21.70;;;;;;;0.70;100.00;99869.21;1721973;83;25649;-40
2023/01/20 05:36:38;;;;;;;48.85;22.65;;;;;;;0.70;100.00;99875.87;1722123;83;27368;-40
2023/01/20 05:39:04;;;;;;;54.00;22.80;;;;;;;0.72;100.00;99878.28;1698226;84;25670;-42
2023/01/20 05:41:35;;;;;;;53.25;22.02;;;;;;;0.72;100.00;99892.92;1722193;83;25568;-40
2023/01/20 05:44:01;;;;;;;49.95;22.30;;;;;;;0.72;100.00;99892.92;1722274;83;25650;-41
2023/01/20 05:46:28;;;;;;;52.98;22.58;;;;;;;0.74;100.00;99910.77;1698233;84;25635;-40
2023/01/20 05:48:54;;;;;;;52.90;22.50;;;;;;;0.74;100.00;99901.45;1722035;83;27350;-40
2023/01/20 05:51:20;;;;;;;53.92;23.62;;;;;;;0.74;100.00;99908.11;1721995;83;25478;-40
2023/01/20 05:53:47;;;;;;;51.48;21.48;;;;;;;0.74;100.00;99916.89;1698223;84;25482;-41
2023/01/20 05:56:14;;;;;;;60.48;22.90;;;;;;;0.75;100.00;99920.38;1721873;83;25691;-41
2023/01/20 05:58:41;;;;;;;50.20;21.85;;;;;;;0.75;100.00;99929.70;1722037;82;25420;-41
2023/01/20 06:01:14;;;;;;;49.85;21.77;;;;;;;0.76;100.00;99927.83;1697955;84;29460;-41
2023/01/20 06:03:42;;;;;;;51.05;21.48;;;;;;;0.76;100.00;99939.81;1721949;83;25585;-41
2023/01/20 06:06:14;;;;;;;56.08;22.48;;;;;;;0.77;100.00;99948.05;1695120;83;25675;-41
2023/01/20 06:08:43;;;;;;;46.63;19.77;;;;;;;0.75;100.00;99954.98;1722319;82;25619;-39
2023/01/20 06:11:13;;;;;;;53.58;21.73;;;;;;;0.75;100.00;99958.98;1722545;83;25686;-39
2023/01/20 06:13:40;;;;;;;50.45;21.95;;;;;;;0.74;100.00;99966.14;1723199;82;27050;-39
2023/01/20 06:16:09;;;;;;;53.58;23.25;;;;;;;0.76;100.00;99977.87;1732651;82;25219;-41
2023/01/20 06:18:35;;;;;;;56.15;23.50;;;;;;;0.75;100.00;99989.60;1732274;82;25459;-40
2023/01/20 06:21:01;;;;;;;62.25;24.85;;;;;;;0.75;100.00;99994.92;1732263;82;25734;-39
2023/01/20 06:23:29;;;;;;;52.10;21.40;;;;;;;0.75;100.00;100005.58;1695869;84;25442;-40
2023/01/20 06:26:09;;;;;;;52.27;23.15;;;;;;;0.76;100.00;100016.48;1722423;81;27361;-40
2023/01/20 06:28:35;;;;;;;56.90;25.35;;;;;;;0.75;100.00;100022.88;1756412;81;27208;-42
2023/01/20 06:31:06;;;;;;;58.23;24.47;;;;;;;0.76;100.00;100026.34;1756246;81;25676;-41
2023/01/20 06:33:34;;;;;;;57.65;24.27;;;;;;;0.76;100.00;100030.33;1755734;81;25679;-40
2023/01/20 06:36:04;;;;;;;57.10;23.83;;;;;;;0.76;100.00;100031.66;1756246;81;25457;-40
2023/01/20 06:38:35;;;;;;;55.03;24.60;;;;;;;0.76;100.00;100031.66;1756291;81;28016;-41
2023/01/20 06:41:06;;;;;;;58.75;24.23;;;;;;;0.74;100.00;100027.92;1756235;81;25588;-40
2023/01/20 06:43:38;;;;;;;55.90;24.70;;;;;;;0.76;100.00;100032.46;1756232;81;25459;-40
2023/01/20 06:46:07;;;;;;;60.83;24.18;;;;;;;0.76;100.00;100043.11;1695010;84;25634;-42
2023/01/20 06:48:35;;;;;;;59.45;24.70;;;;;;;0.76;100.00;100048.97;1664256;84;25524;-40
2023/01/20 06:51:06;;;;;;;52.00;25.17;;;;;;;0.75;100.00;100042.85;1696107;84;27320;-41
2023/01/20 06:53:34;;;;;;;64.47;26.93;;;;;;;0.77;100.00;100050.56;1756207;81;25632;-41
2023/01/20 06:56:03;;;;;;;59.75;25.25;;;;;;;0.74;100.00;100039.36;1756375;81;25446;-40
2023/01/20 06:58:32;;;;;;;;;;;;;;;0.77;100.00;100046.56;1758848;81;26391;-43
2023/01/20 07:01:13;;;;;;;59.73;25.20;;;;;;;0.77;100.00;100049.23;1756628;81;25409;-40
2023/01/20 07:03:43;;;;;;;64.90;27.60;;;;;;;0.77;100.00;100049.23;1662697;84;27042;-39
2023/01/20 07:06:38;;;;;;;119.57;48.75;;;;;;;0.77;100.00;100051.39;1695797;84;25550;-39
2023/01/20 07:09:11;;;;;;;77.95;34.05;;;;;;;0.79;100.00;100056.47;1695840;84;25575;-40
2023/01/20 07:11:39;;;;;;;82.17;31.48;;;;;;;0.78;100.00;100054.31;1695922;84;25682;-41
2023/01/20 07:14:07;;;;;;;76.13;32.43;;;;;;;0.80;100.00;100060.22;1696048;84;25640;-42
2023/01/20 07:16:34;;;;;;;78.52;32.73;;;;;;;0.81;100.00;100051.69;1695832;84;29570;-42
2023/01/20 07:19:00;;;;;;;70.03;31.37;;;;;;;0.84;100.00;100056.52;1695718;84;25649;-43
2023/01/20 07:21:27;;;;;;;75.37;30.50;;;;;;;0.84;100.00;100061.31;1695868;84;25702;-41
2023/01/20 07:23:57;;;;;;;77.47;30.95;;;;;;;0.85;100.00;100066.92;1695781;84;25674;-42
2023/01/20 07:26:25;;;;;;;78.20;32.13;;;;;;;0.87;100.00;100070.64;1695844;84;25589;-40
2023/01/20 07:28:53;;;;;;;74.82;31.90;;;;;;;0.87;100.00;100075.97;1695869;84;27386;-40
2023/01/20 07:31:25;;;;;;;75.85;33.63;;;;;;;0.89;100.00;100081.88;1695748;84;25765;-40
2023/01/20 07:33:55;;;;;;;82.27;32.38;;;;;;;0.91;100.00;100084.55;1695780;84;25573;-39
2023/01/20 07:36:24;;;;;;;70.72;30.48;;;;;;;0.93;100.00;100088.30;1663955;84;25633;-42
2023/01/20 07:38:53;;;;;;;80.28;31.30;;;;;;;0.95;100.00;100090.17;1696228;84;25615;-40
2023/01/20 07:41:22;;;;;;;73.13;29.73;;;;;;;0.97;100.00;100087.27;1696204;84;27365;-40
2023/01/20 07:43:53;;;;;;;72.12;29.20;;;;;;;0.98;100.00;100084.89;1696037;84;25696;-40
2023/01/20 07:46:21;;;;;;;92.20;38.78;;;;;;;1.00;100.00;100090.77;1696026;84;25682;-41
2023/01/20 07:48:48;;;;;;;80.25;30.68;;;;;;;0.99;100.00;100095.30;1696079;84;25708;-40
2023/01/20 07:51:16;;;;;;;67.65;28.73;;;;;;;1.02;100.00;100088.15;1664231;84;25267;-40
2023/01/20 07:53:47;;;;;;;68.05;28.20;;;;;;;1.04;100.00;100089.20;1663500;84;27794;-41
2023/01/20 07:56:24;;;;;;;68.83;28.65;;;;;;;1.07;100.00;100090.87;1695413;84;25707;-41
2023/01/20 07:58:54;;;;;;;69.77;27.40;;;;;;;1.10;100.00;100090.88;1695983;84;25644;-41
2023/01/20 08:01:29;;;;;;;70.83;29.20;;;;;;;1.15;100.00;100091.47;1695827;84;25627;-41
2023/01/20 08:03:59;;;;;;;66.95;26.87;;;;;;;1.16;100.00;100093.05;1664316;84;25623;-41
2023/01/20 08:06:28;;;;;;;66.12;27.13;;;;;;;1.17;100.00;100088.02;1695893;84;27328;-42
2023/01/20 08:08:58;;;;;;;69.40;27.13;;;;;;;1.17;100.00;100090.14;1695844;84;25629;-42
2023/01/20 08:11:27;;;;;;;60.58;27.07;;;;;;;1.21;100.00;100083.78;1695928;84;25571;-42
2023/01/20 08:13:55;;;;;;;64.40;26.65;;;;;;;1.23;100.00;100092.35;1756137;81;25631;-40
2023/01/20 08:16:21;;;;;;;65.35;27.00;;;;;;;1.27;100.00;100091.58;1756117;81;25599;-41
2023/01/20 08:18:52;;;;;;;58.63;26.25;;;;;;;1.30;100.00;100095.08;1695800;84;27347;-41
2023/01/20 08:21:24;;;;;;;64.17;25.70;;;;;;;1.32;100.00;100093.49;1695786;84;25597;-43
2023/01/20 08:23:56;;;;;;;63.40;25.20;;;;;;;1.34;100.00;100094.04;1695852;84;25593;-43
2023/01/20 08:26:26;;;;;;;68.52;30.97;;;;;;;1.35;100.00;100086.33;1664236;84;26200;-43
2023/01/20 08:29:00;;;;;;;72.47;31.33;;;;;;;1.38;100.00;100091.67;1695867;84;25568;-41
2023/01/20 08:31:26;;;;;;;68.20;26.20;;;;;;;1.41;100.00;100092.50;1695889;84;27431;-42
2023/01/20 08:33:56;;;;;;;70.72;26.00;;;;;;;1.44;100.00;100096.80;1695677;84;25541;-41
2023/01/20 08:36:33;;;;;;;58.90;24.32;;;;;;;1.47;100.00;100095.50;1695933;84;29977;-40
2023/01/20 08:39:04;;;;;;;61.33;24.67;;;;;;;1.57;100.00;100093.46;1695719;84;25689;-43
2023/01/20 08:41:39;;;;;;;67.35;26.25;;;;;;;1.65;100.00;100086.30;1695782;84;25420;-43
2023/01/20 08:44:09;;;;;;;70.00;27.98;;;;;;;1.74;100.00;100088.80;1695737;84;27389;-42
2023/01/20 08:46:38;;;;;;;64.53;27.10;;;;;;;1.80;100.00;100082.96;1695837;84;25455;-43
2023/01/20 08:49:16;;;;;;;57.70;25.15;;;;;;;1.85;100.00;100077.13;1695978;84;25397;-43
2023/01/20 08:51:44;;;;;;;60.50;25.20;;;;;;;1.90;100.00;100082.23;1695711;84;25679;-42
2023/01/20 08:54:13;;;;;;;62.75;25.30;;;;;;;1.93;100.00;100083.86;1664076;84;25684;-41
2023/01/20 08:56:39;;;;;;;67.80;26.10;;;;;;;1.93;100.00;100083.06;1689835;84;27530;-42
2023/01/20 08:59:09;;;;;;;60.28;25.08;;;;;;;1.97;100.00;100090.28;1695664;84;25688;-42
2023/01/20 09:01:36;;;;;;;63.35;23.87;;;;;;;2.02;100.00;100094.85;1695933;84;25474;-42
2023/01/20 09:04:05;;;;;;;65.47;24.72;;;;;;;2.06;100.00;100098.64;1695790;84;25578;-41
2023/01/20 09:06:47;;;;;;;58.08;23.40;;;;;;;2.07;100.00;100101.56;1695776;84;25604;-41
2023/01/20 09:09:19;;;;;;;55.55;22.67;;;;;;;2.10;100.00;100102.38;1695781;84;27939;-42
2023/01/20 09:11:49;;;;;;;70.78;24.82;;;;;;;2.11;100.00;100107.19;1695704;84;25660;-43
2023/01/20 09:14:13;;;;;;;64.55;24.57;;;;;;;2.07;100.00;100106.10;1694770;84;25696;-41
2023/01/20 09:16:39;;;;;;;64.10;25.12;;;;;;;2.00;100.00;100104.98;1695719;84;25779;-41
2023/01/20 09:19:05;;;;;;;65.20;26.27;;;;;;;1.98;100.00;100119.12;1695739;84;25601;-41
2023/01/20 09:21:33;;;;;;;63.30;25.52;;;;;;;1.94;100.00;100116.67;1695750;84;27375;-40
2023/01/20 09:24:00;;;;;;;65.42;24.15;;;;;;;1.92;100.00;100127.59;1695625;84;25833;-41
2023/01/20 09:26:26;;;;;;;60.85;25.52;;;;;;;1.87;100.00;100128.88;1695692;84;25547;-41
2023/01/20 09:28:52;;;;;;;88.72;33.83;;;;;;;1.84;100.00;100133.42;1695729;84;25646;-42
2023/01/20 09:31:19;;;;;;;64.67;25.75;;;;;;;1.85;100.00;100133.14;1695762;84;32296;-41
2023/01/20 09:33:46;;;;;;;62.90;24.05;;;;;;;1.85;100.00;100141.14;1695681;84;27342;-40
2023/01/20 09:36:15;;;;;;;57.55;22.90;;;;;;;1.82;100.00;100140.34;1695608;84;25523;-42
2023/01/20 09:44:45;;;;;;;55.10;23.67;;;;;;;1.88;100.00;100154.52;1695776;84;25738;-42
2023/01/20 09:47:28;;;;;;;59.15;25.25;;;;;;;1.90;100.00;100156.92;1695464;83;29596;-42
2023/01/20 09:53:34;;;;;;;54.27;21.90;;;;;;;1.91;100.00;100164.68;1695794;83;25488;-40
2023/01/20 09:56:15;;;;;;;58.48;22.42;;;;;;;1.93;100.00;100166.56;1695746;84;27791;-43
2023/01/20 09:58:47;;;;;;;47.33;21.12;;;;;;;1.93;100.00;100169.22;1694067;84;25601;-41
2023/01/20 10:01:48;;;;;;;54.77;24.10;;;;;;;1.94;100.00;100176.69;1695900;84;27355;-41
2023/01/20 10:04:29;;;;;;;50.33;23.42;;;;;;;1.92;100.00;100167.60;1695748;84;25699;-42
2023/01/20 10:07:25;;;;;;;57.27;23.77;;;;;;;1.91;100.00;100175.34;1756354;81;25675;-43
2023/01/20 10:10:14;;;;;;;57.60;24.05;;;;;;;1.89;100.00;100172.14;1755756;81;25719;-41
2023/01/20 10:12:58;;;;;;;46.23;22.93;;;;;;;1.91;100.00;100172.69;1695204;84;25485;-42
2023/01/20 10:15:29;;;;;;;52.15;23.57;;;;;;;1.90;100.00;100167.59;1681766;83;27382;-41
2023/01/20 10:18:16;;;;;;;56.63;24.32;;;;;;;1.88;100.00;100164.39;1695821;84;25626;-42
2023/01/20 10:20:47;;;;;;;58.45;24.55;;;;;;;1.87;100.00;100163.56;1756325;81;25580;-42
2023/01/20 10:23:36;;;;;;;59.75;25.60;;;;;;;1.85;100.00;100166.48;1756317;81;25666;-43
2023/01/20 10:26:40;;;;;;;54.23;24.93;;;;;;;1.81;100.00;100161.39;1756611;81;25584;-42
2023/01/20 10:29:15;;;;;;;63.60;28.70;;;;;;;1.84;100.00;100156.89;1756377;81;27432;-41
2023/01/20 10:31:48;;;;;;;62.08;28.47;;;;;;;1.89;100.00;100160.13;1756176;81;25592;-40
2023/01/20 10:34:21;;;;;;;67.05;28.07;;;;;;;1.87;100.00;100164.89;1756319;81;25406;-40
2023/01/20 10:36:58;;;;;;;64.03;29.30;;;;;;;1.90;100.00;100168.39;1695883;84;25741;-42
2023/01/20 10:39:45;;;;;;;60.63;27.05;;;;;;;1.95;100.00;100171.64;1754960;81;25626;-40
2023/01/20 10:42:17;;;;;;;58.85;27.32;;;;;;;1.99;100.00;100176.73;1631585;87;28157;-42
2023/01/20 10:44:48;;;;;;;59.60;26.52;;;;;;;2.00;100.00;100177.81;1609083;87;25554;-40
2023/01/20 10:47:47;;;;;;;51.02;22.85;;;;;;;1.99;100.00;100188.73;1632308;87;25577;-41
2023/01/20 10:50:36;;;;;;;48.30;22.67;;;;;;;2.03;100.00;100193.86;1631434;87;27780;-40
2023/01/20 10:53:22;;;;;;;52.25;23.75;;;;;;;2.05;100.00;100197.07;1607811;89;25576;-40
2023/01/20 10:56:14;;;;;;;52.62;26.27;;;;;;;2.05;100.00;100200.53;1607585;89;27525;-41
2023/01/20 10:58:44;;;;;;;49.85;24.18;;;;;;;2.07;100.00;100202.95;1599019;88;25560;-40
2023/01/20 11:01:15;;;;;;;54.42;24.52;;;;;;;2.07;100.00;100196.82;1607409;89;25488;-42
2023/01/20 11:03:46;;;;;;;55.40;24.47;;;;;;;2.06;100.00;100189.35;1607295;89;25636;-40
2023/01/20 11:06:20;;;;;;;54.75;26.87;;;;;;;2.06;100.00;100193.36;1607434;89;25456;-41
2023/01/20 11:08:48;;;;;;;50.55;24.18;;;;;;;2.08;100.00;100189.07;1607129;88;27443;-41
2023/01/20 11:11:20;;;;;;;47.05;24.02;;;;;;;2.11;100.00;100189.91;1607229;89;25746;-41
2023/01/20 11:13:51;;;;;;;47.10;23.20;;;;;;;2.10;100.00;100193.11;1607316;89;25501;-41
2023/01/20 11:16:30;;;;;;;46.42;21.68;;;;;;;2.11;100.00;100189.39;1606109;88;25911;-42
2023/01/20 11:19:02;;;;;;;47.50;23.43;;;;;;;2.13;100.00;100189.94;1637388;83;25480;-43
2023/01/20 11:21:35;;;;;;;44.10;22.80;;;;;;;2.16;100.00;100193.44;1714364;83;27397;-43
2023/01/20 11:24:12;;;;;;;47.73;22.45;;;;;;;2.13;100.00;100191.27;1688946;83;25789;-41
2023/01/20 11:26:39;;;;;;;47.73;22.52;;;;;;;2.14;100.00;100197.41;1680427;83;25510;-41
2023/01/20 11:29:13;;;;;;;45.92;22.65;;;;;;;2.14;100.00;100202.73;1726153;81;25697;-41
2023/01/20 11:31:48;;;;;;;43.55;20.82;;;;;;;2.12;100.00;100207.00;1758919;81;25474;-42
2023/01/20 11:34:30;;;;;;;50.50;23.10;;;;;;;2.14;100.00;100212.88;1758896;81;27328;-40
2023/01/20 11:37:24;;;;;;;44.85;21.87;;;;;;;2.17;100.00;100219.05;1759016;81;25579;-41
2023/01/20 11:40:18;;;;;;;48.15;22.02;;;;;;;2.19;100.00;100211.58;1758954;81;25568;-40
2023/01/20 11:42:49;;;;;;;49.53;23.83;;;;;;;2.18;100.00;100213.17;1758928;81;26343;-43
2023/01/20 11:45:36;;;;;;;53.92;23.42;;;;;;;2.20;100.00;100214.54;1758959;81;25632;-41
2023/01/20 11:48:20;;;;;;;56.63;24.82;;;;;;;2.22;100.00;100218.29;1696353;84;28095;-41
2023/01/20 11:50:57;;;;;;;57.33;24.30;;;;;;;2.18;100.00;100218.50;1710915;82;25620;-41